Flight Track Log - Related Links

Times and Time Zones

All times are in EDT time to prevent confusion due to time zone crossing. See the DCM6278 flight status page for this flight to view local times or setup timezone preferences in your user account.

Time Position Orientation Groundspeed Altitude Reporting Facility
EDT Latitude Longitude Course Direction KTS MPH feet Rate Location/Type
Fri 02:27:37 PM 41.8167 -87.7833 56° Northeast 204 235 2,400  Level Chicago TRACON
Fri 02:28:37 PM 41.8500 -87.7167 56° Northeast 256 295 3,000 600 Climbing Chicago TRACON
Fri 02:29:07 PM 41.8253 -87.6869 138° Southeast 268 308 3,300 587 Climbing Chicago Center
Fri 02:30:09 PM 41.7500 -87.6806 176° South 272 313 3,900 1,258 Climbing Chicago Center
Fri 02:31:11 PM 41.6728 -87.6728 176° South 276 318 5,900 1,694 Climbing Chicago Center
Fri 02:32:13 PM 41.5975 -87.6489 167° South 278 320 7,400 2,419 Climbing Chicago Center
Fri 02:33:15 PM 41.5200 -87.6153 162° South 292 336 10,900 2,226 Climbing Chicago Center
Fri 02:34:17 PM 41.4261 -87.5722 161° South 296 341 12,000 1,680 Climbing Chicago Center
Fri 02:35:20 PM 41.3350 -87.5397 165° South 342 394 14,400 1,536 Climbing Chicago Center
Fri 02:36:22 PM 41.2353 -87.4797 156° South 382 440 15,200 1,258 Climbing Chicago Center
Fri 02:37:24 PM 41.1292 -87.4200 157° South 406 467 17,000 919 Climbing Chicago Center
Fri 02:38:26 PM 41.0231 -87.3569 156° South 415 478 17,100  Climbing Chicago Center
Fri 02:39:28 PM 40.9147 -87.2961 157° South 421 484 17,000 -48 Descending Chicago Center
Fri 02:40:30 PM 40.7858 -87.2219 156° South 422 486 17,000  Level Chicago Center
Fri 02:41:32 PM 40.6786 -87.1611 157° South 422 486 17,000  Level Chicago Center
Fri 02:42:34 PM 40.5717 -87.0994 156° South 422 486 17,000  Level Chicago Center
Fri 02:43:36 PM 40.4656 -87.0403 157° South 419 482 17,000 -48 Level Chicago Center
Fri 02:44:39 PM 40.3644 -86.9833 157° South 405 466 16,900 -1,152 Descending Chicago Center
Fri 02:45:41 PM 40.2447 -86.9161 157° South 394 453 14,600 -1,887 Descending Chicago Center
Fri 02:46:43 PM 40.1547 -86.8547 152° Southeast 387 445 13,000 -1,403 Descending Chicago Center
Fri 02:47:45 PM 40.0906 -86.7706 135° Southeast 331 381 11,700 -1,244 Descending Chicago Center
Fri 02:48:05 PM 40.0656 -86.7306 129° Southeast 344 396 11,300 -1,756 Descending Indianapolis Center
Fri 02:49:07 PM 40.0089 -86.6469 131° Southeast 328 377 9,300 -1,935 Descending Indianapolis Center
Fri 02:50:09 PM 39.9625 -86.5675 127° Southeast 307 353 7,300 -1,355 Descending Indianapolis Center
Fri 02:51:11 PM 39.9694 -86.4922 83° East 290 334 6,500 -774 Descending Indianapolis Center

Login

Don't have an account? Register now (free) for customized features, flight alerts, and more!